2022年8月11日

时间 代码 天气 温度 能见度 天花板 METAR/SPECI
17:50
V
29 °C 10 km+ - 050° 050° 9 kt METAR EDDH 111550Z AUTO 05009KT 010V080 CAVOK 29/12 Q1022 NOSIG
17:20
V
29 °C 10 km+ - 040° 040° 8 kt METAR EDDH 111520Z AUTO 04008KT 010V070 CAVOK 29/12 Q1022 NOSIG
16:50
V
30 °C 10 km+ - 090° 090° 5 kt METAR EDDH 111450Z AUTO 09005KT 350V160 CAVOK 30/10 Q1022 NOSIG
16:20
V
30 °C 10 km+ - 070° 070° 8 kt METAR EDDH 111420Z AUTO 07008KT 040V130 CAVOK 30/10 Q1022 NOSIG
15:50
V
30 °C 10 km+ - 020° 020° 6 - 17 kt METAR EDDH 111350Z AUTO 02006G17KT CAVOK 30/10 Q1023 TEMPO 07007KT
15:20
V
29 °C 10 km+ - 070° 070° 7 kt METAR EDDH 111320Z AUTO 07007KT 030V110 CAVOK 29/10 Q1023 NOSIG
14:50
V
29 °C 10 km+ - 080° 080° 8 kt METAR EDDH 111250Z AUTO 08008KT 040V130 CAVOK 29/11 Q1023 NOSIG
14:20
V
29 °C 10 km+ - Var Var 3 kt METAR EDDH 111220Z AUTO VRB03KT CAVOK 29/12 Q1023 NOSIG
13:50
V
29 °C 10 km+ - 140° 140° 7 kt METAR EDDH 111150Z AUTO 14007KT 100V240 CAVOK 29/11 Q1024 NOSIG
13:20
V
28 °C 10 km+ - 080° 080° 5 kt METAR EDDH 111120Z AUTO 08005KT 340V140 CAVOK 28/11 Q1024 NOSIG
12:50
V
28 °C 10 km+ - 100° 100° 6 kt METAR EDDH 111050Z AUTO 10006KT 040V150 CAVOK 28/12 Q1024 NOSIG
12:20
V
28 °C 10 km+ - 070° 070° 5 kt METAR EDDH 111020Z AUTO 07005KT 350V140 CAVOK 28/12 Q1024 NOSIG
11:50
V
27 °C 10 km+ - 110° 110° 6 kt METAR EDDH 110950Z AUTO 11006KT 060V210 CAVOK 27/12 Q1024 NOSIG
11:20
V
27 °C 10 km+ - Var Var 5 kt METAR EDDH 110920Z AUTO VRB05KT CAVOK 27/12 Q1025 NOSIG
10:50
V
26 °C 10 km+ - Var Var 4 kt METAR EDDH 110850Z AUTO VRB04KT CAVOK 26/13 Q1025 NOSIG
10:20
V
25 °C 10 km+ - 070° 070° 3 kt METAR EDDH 110820Z AUTO 07003KT 360V130 CAVOK 25/13 Q1025 NOSIG
09:50
V
24 °C 10 km+ - 090° 090° 3 kt METAR EDDH 110750Z AUTO 09003KT 020V130 CAVOK 24/13 Q1025 NOSIG
09:20
V
23 °C 10 km+ - Var Var 2 kt METAR EDDH 110720Z AUTO VRB02KT CAVOK 23/13 Q1025 NOSIG
08:50
V
21 °C 10 km+ - 080° 080° 3 kt METAR EDDH 110650Z AUTO 08003KT 040V140 CAVOK 21/13 Q1025 NOSIG
08:20
V
20 °C 10 km+ - 080° 080° 3 kt METAR EDDH 110620Z AUTO 08003KT CAVOK 20/13 Q1025 NOSIG
07:50
V
18 °C 10 km+ - 080° 080° 3 kt METAR EDDH 110550Z AUTO 08003KT 060V130 CAVOK 18/13 Q1025 NOSIG
07:20
V
17 °C 10 km+ - 070° 070° 3 kt METAR EDDH 110520Z AUTO 07003KT 040V100 CAVOK 17/14 Q1025 NOSIG
06:50
V
15 °C 10 km+ - 070° 070° 3 kt METAR EDDH 110450Z AUTO 07003KT CAVOK 15/13 Q1025 NOSIG
06:20
V
14 °C 10 km+ - 070° 070° 3 kt METAR EDDH 110420Z AUTO 07003KT CAVOK 14/12 Q1025 NOSIG
05:50
V
14 °C 10 km+ - 070° 070° 3 kt METAR EDDH 110350Z AUTO 07003KT CAVOK 14/12 Q1025 NOSIG
05:20
V
14 °C 10 km+ - 070° 070° 4 kt METAR EDDH 110320Z AUTO 07004KT CAVOK 14/12 Q1025 NOSIG
04:50
V
14 °C 10 km+ - 060° 060° 3 kt METAR EDDH 110250Z AUTO 06003KT CAVOK 14/12 Q1025 NOSIG
04:20
V
15 °C 10 km+ - 060° 060° 3 kt METAR EDDH 110220Z AUTO 06003KT CAVOK 15/12 Q1025 NOSIG
03:50
V
15 °C 10 km+ - 070° 070° 3 kt METAR EDDH 110150Z AUTO 07003KT CAVOK 15/13 Q1025 NOSIG
03:20
V
15 °C 10 km+ - Var Var 1 kt METAR EDDH 110120Z AUTO VRB01KT CAVOK 15/13 Q1025 NOSIG
02:50
V
16 °C 10 km+ - Var Var 1 kt METAR EDDH 110050Z AUTO VRB01KT CAVOK 16/13 Q1025 NOSIG
02:20
V
16 °C 10 km+ - Var Var 2 kt METAR EDDH 110020Z AUTO VRB02KT CAVOK 16/13 Q1025 NOSIG
01:50
V
16 °C 10 km+ - Var Var 2 kt METAR EDDH 102350Z AUTO VRB02KT CAVOK 16/13 Q1025 NOSIG
01:20
V
17 °C 10 km+ - Var Var 1 kt METAR EDDH 102320Z AUTO VRB01KT CAVOK 17/13 Q1025 NOSIG
00:50
V
17 °C 10 km+ - Var Var 2 kt METAR EDDH 102250Z AUTO VRB02KT CAVOK 17/13 Q1025 NOSIG
00:20
V
17 °C 10 km+ - 060° 060° 3 kt METAR EDDH 102220Z AUTO 06003KT CAVOK 17/13 Q1025 NOSIG

2022年8月10日

时间 代码 天气 温度 能见度 天花板 METAR/SPECI
23:50
V
18 °C 10 km+ - 050° 050° 4 kt METAR EDDH 102150Z AUTO 05004KT CAVOK 18/13 Q1025
23:20
V
19 °C 10 km+ - 050° 050° 4 kt METAR EDDH 102120Z AUTO 05004KT CAVOK 19/13 Q1025 NOSIG
22:50
V
19 °C 10 km+ - 060° 060° 5 kt METAR EDDH 102050Z AUTO 06005KT CAVOK 19/13 Q1025 NOSIG
22:20
V
20 °C 10 km+ - 050° 050° 5 kt METAR EDDH 102020Z AUTO 05005KT CAVOK 20/13 Q1025 NOSIG
21:50
V
21 °C 10 km+ - 060° 060° 7 kt METAR EDDH 101950Z AUTO 06007KT CAVOK 21/13 Q1025 NOSIG
21:20
V
22 °C 10 km+ - 070° 070° 7 kt METAR EDDH 101920Z AUTO 07007KT CAVOK 22/13 Q1025 NOSIG
20:50
V
23 °C 10 km+ - 060° 060° 6 kt METAR EDDH 101850Z AUTO 06006KT CAVOK 23/13 Q1025 NOSIG
20:20
V
24 °C 10 km+ - 060° 060° 7 kt METAR EDDH 101820Z AUTO 06007KT CAVOK 24/13 Q1025 NOSIG
19:50
V
26 °C 10 km+ - 030° 030° 5 kt METAR EDDH 101750Z AUTO 03005KT 350V050 CAVOK 26/11 Q1025 NOSIG
19:20
V
27 °C 10 km+ - 040° 040° 6 kt METAR EDDH 101720Z AUTO 04006KT 360V080 CAVOK 27/12 Q1025 NOSIG
18:50
V
27 °C 10 km+ - 050° 050° 5 kt METAR EDDH 101650Z AUTO 05005KT CAVOK 27/12 Q1025 NOSIG
18:20
V
27 °C 10 km+ - 070° 070° 6 kt METAR EDDH 101620Z AUTO 07006KT 360V100 CAVOK 27/12 Q1025 NOSIG
17:50
V
27 °C 10 km+ - 070° 070° 5 kt METAR EDDH 101550Z AUTO 07005KT 010V140 CAVOK 27/12 Q1025 NOSIG
17:20
V
27 °C 10 km+ - Var Var 4 kt METAR EDDH 101520Z AUTO VRB04KT CAVOK 27/12 Q1026 BECMG 05007KT
16:50
V
27 °C 10 km+ - Var Var 4 kt METAR EDDH 101450Z AUTO VRB04KT CAVOK 27/11 Q1026 TEMPO 05005KT
16:20
V
27 °C 10 km+ - Var Var 4 kt METAR EDDH 101420Z AUTO VRB04KT CAVOK 27/11 Q1026 TEMPO 05005KT
15:50
V
27 °C 10 km+ - 040° 040° 5 kt METAR EDDH 101350Z AUTO 04005KT 330V130 CAVOK 27/11 Q1026 NOSIG
15:20
V
27 °C 10 km+ - 340° 340° 5 kt METAR EDDH 101320Z AUTO 34005KT 270V030 CAVOK 27/11 Q1026 BECMG 04005KT
14:50
V
27 °C 10 km+ - 040° 040° 5 kt METAR EDDH 101250Z AUTO 04005KT 350V130 CAVOK 27/10 Q1027 NOSIG
14:20
V
26 °C 10 km+ - Var Var 3 kt METAR EDDH 101220Z AUTO VRB03KT CAVOK 26/11 Q1027 TEMPO 06005KT
13:50
V
26 °C 10 km+ - 060° 060° 7 kt METAR EDDH 101150Z AUTO 06007KT 360V140 CAVOK 26/10 Q1027 NOSIG
13:20
V
25 °C 10 km+ - Var Var 3 kt METAR EDDH 101120Z AUTO VRB03KT CAVOK 25/11 Q1028 TEMPO 03005KT
12:50
V
25 °C 10 km+ - Var Var 4 kt METAR EDDH 101050Z AUTO VRB04KT 9999 FEW044 25/12 Q1028 TEMPO 03005KT
12:20
V
25 °C 10 km+ - Var Var 4 kt METAR EDDH 101020Z AUTO VRB04KT 9999 FEW043 25/13 Q1028 TEMPO 03005KT
11:50
V
24 °C 10 km+ - Var Var 4 kt METAR EDDH 100950Z AUTO VRB04KT 9999 FEW040 24/12 Q1028 TEMPO 03005KT
11:20
V
24 °C 10 km+ - Var Var 3 kt METAR EDDH 100920Z AUTO VRB03KT CAVOK 24/13 Q1028 NOSIG
10:50
V
23 °C 10 km+ - 090° 090° 4 kt METAR EDDH 100850Z AUTO 09004KT 350V140 CAVOK 23/13 Q1028 NOSIG
10:20
V
22 °C 10 km+ - 050° 050° 4 kt METAR EDDH 100820Z AUTO 05004KT 290V100 CAVOK 22/13 Q1029 NOSIG
09:50
V
21 °C 10 km+ - 040° 040° 3 kt METAR EDDH 100750Z AUTO 04003KT 300V110 CAVOK 21/12 Q1029 NOSIG
09:20
V
21 °C 10 km+ - 080° 080° 3 kt METAR EDDH 100720Z AUTO 08003KT 050V110 CAVOK 21/14 Q1028 NOSIG
08:50
V
20 °C 10 km+ - 080° 080° 5 kt METAR EDDH 100650Z AUTO 08005KT CAVOK 20/15 Q1028 NOSIG
08:20
V
19 °C 10 km+ - 050° 050° 5 kt METAR EDDH 100620Z AUTO 05005KT CAVOK 19/14 Q1029 NOSIG
07:50
V
17 °C 10 km+ - 060° 060° 3 kt METAR EDDH 100550Z AUTO 06003KT CAVOK 17/14 Q1029 NOSIG
07:20
V
16 °C 10 km+ - 060° 060° 3 kt METAR EDDH 100520Z AUTO 06003KT 020V100 CAVOK 16/13 Q1029 NOSIG
06:50
V
13 °C 10 km+ - 330° 330° 1 kt METAR EDDH 100450Z AUTO 33001KT CAVOK 13/12 Q1028 NOSIG
06:20
V
12 °C 10 km+ - Var 000° 0 kt METAR EDDH 100420Z AUTO 00000KT CAVOK 12/11 Q1028 NOSIG
05:50
V
12 °C 10 km+ - 320° 320° 2 kt METAR EDDH 100350Z AUTO 32002KT CAVOK 12/11 Q1028 NOSIG
05:20
V
12 °C 10 km+ - Var Var 1 kt METAR EDDH 100320Z AUTO VRB01KT CAVOK 12/11 Q1028 NOSIG
04:50
V
12 °C 10 km+ - 320° 320° 2 kt METAR EDDH 100250Z AUTO 32002KT CAVOK 12/12 Q1028 NOSIG
04:20
V
11 °C 10 km+ - Var Var 2 kt METAR EDDH 100220Z AUTO VRB02KT CAVOK 11/10 Q1028 NOSIG
03:50
V
12 °C 10 km+ - Var Var 1 kt METAR EDDH 100150Z AUTO VRB01KT CAVOK 12/12 Q1028 NOSIG
03:20
V
12 °C 10 km+ - Var Var 1 kt METAR EDDH 100120Z AUTO VRB01KT CAVOK 12/12 Q1028 NOSIG
02:50
V
13 °C 10 km+ - Var Var 1 kt METAR EDDH 100050Z AUTO VRB01KT CAVOK 13/12 Q1028 NOSIG
02:20
V
13 °C 10 km+ - Var Var 1 kt METAR EDDH 100020Z AUTO VRB01KT CAVOK 13/12 Q1029 NOSIG
01:50
V
13 °C 10 km+ - Var Var 1 kt METAR EDDH 092350Z AUTO VRB01KT CAVOK 13/12 Q1029
01:20
V
14 °C 10 km+ - 020° 020° 1 kt METAR EDDH 092320Z AUTO 02001KT CAVOK 14/12 Q1028 NOSIG
00:50
V
14 °C 10 km+ - Var Var 1 kt METAR EDDH 092250Z AUTO VRB01KT CAVOK 14/12 Q1029 NOSIG
00:20
V
15 °C 10 km+ - 300° 300° 2 kt METAR EDDH 092220Z AUTO 30002KT CAVOK 15/12 Q1029 NOSIG

2022年8月9日

时间 代码 天气 温度 能见度 天花板 METAR/SPECI
23:50
V
15 °C 10 km+ - Var Var 1 kt METAR EDDH 092150Z AUTO VRB01KT CAVOK 15/12 Q1029 NOSIG
23:20
V
16 °C 10 km+ - 020° 020° 4 kt METAR EDDH 092120Z AUTO 02004KT 350V050 CAVOK 16/12 Q1029 NOSIG
22:50
V
17 °C 10 km+ - 050° 050° 3 kt METAR EDDH 092050Z AUTO 05003KT 010V080 CAVOK 17/13 Q1028 NOSIG
22:20
V
18 °C 10 km+ - 030° 030° 3 kt METAR EDDH 092020Z AUTO 03003KT 350V060 CAVOK 18/13 Q1029 NOSIG
21:50
V
19 °C 10 km+ - 040° 040° 4 kt METAR EDDH 091950Z AUTO 04004KT CAVOK 19/13 Q1028 NOSIG
21:20
V
20 °C 10 km+ - 050° 050° 6 kt METAR EDDH 091920Z AUTO 05006KT CAVOK 20/13 Q1028 NOSIG
20:50
V
21 °C 10 km+ - 050° 050° 7 kt METAR EDDH 091850Z AUTO 05007KT CAVOK 21/13 Q1028 NOSIG
20:20
V
22 °C 10 km+ - 050° 050° 8 kt METAR EDDH 091820Z AUTO 05008KT CAVOK 22/13 Q1028 NOSIG
19:50
V
23 °C 10 km+ - 040° 040° 7 kt METAR EDDH 091750Z AUTO 04007KT CAVOK 23/13 Q1028 NOSIG
19:20
V
23 °C 10 km+ - 050° 050° 9 kt METAR EDDH 091720Z AUTO 05009KT CAVOK 23/14 Q1028 NOSIG
18:50
V
23 °C 10 km+ - 040° 040° 8 kt METAR EDDH 091650Z AUTO 04008KT 010V070 CAVOK 23/13 Q1027 NOSIG
18:20
V
25 °C 10 km+ - 040° 040° 7 kt METAR EDDH 091620Z AUTO 04007KT 330V080 CAVOK 25/12 Q1027 NOSIG
17:50
V
25 °C 10 km+ - Var Var 8 kt METAR EDDH 091550Z AUTO VRB08KT CAVOK 25/12 Q1028 BECMG 02008KT
17:20
V
24 °C 10 km+ - 330° 330° 5 kt METAR EDDH 091520Z AUTO 33005KT 300V010 CAVOK 24/12 Q1028 NOSIG
16:50
V
25 °C 10 km+ - 030° 030° 4 kt METAR EDDH 091450Z AUTO 03004KT 360V090 CAVOK 25/12 Q1028 NOSIG
较旧的数据

我们和第三方通过cookies跟踪您在我们网站上的上网行为。如果您继续,我们认为您同意我们的cookie政策。 了解更多